createdAt,value
2018-07-16T00:00:22.468Z,3.55
2018-07-16T00:00:55.497Z,3.50
2018-07-16T00:01:28.545Z,4.03
2018-07-16T00:02:01.600Z,3.67
2018-07-16T00:02:34.616Z,3.20
2018-07-16T00:03:07.660Z,3.35
2018-07-16T00:03:40.692Z,3.65
2018-07-16T00:04:13.720Z,3.80
2018-07-16T00:04:46.771Z,3.30
2018-07-16T00:05:19.811Z,4.18
2018-07-16T00:05:52.845Z,3.92
2018-07-16T00:06:25.880Z,3.60
2018-07-16T00:06:59.688Z,3.60
2018-07-16T00:07:33.814Z,3.58
2018-07-16T00:08:06.804Z,3.60
2018-07-16T00:08:39.844Z,4.05
2018-07-16T00:09:12.872Z,4.15
2018-07-16T00:09:45.931Z,4.30
2018-07-16T00:10:18.966Z,4.20
2018-07-16T00:10:51.982Z,3.85
2018-07-16T00:11:25.032Z,3.85
2018-07-16T00:11:58.830Z,3.70
2018-07-16T00:12:31.872Z,3.80
2018-07-16T00:13:04.917Z,4.20
2018-07-16T00:13:37.952Z,3.72
2018-07-16T00:14:10.993Z,4.00
2018-07-16T00:14:44.809Z,3.90
2018-07-16T00:15:17.836Z,4.20
2018-07-16T00:15:50.907Z,4.22
2018-07-16T00:16:23.932Z,3.85
2018-07-16T00:16:56.952Z,4.60
2018-07-16T00:17:30.197Z,4.40
2018-07-16T00:18:03.225Z,3.60
2018-07-16T00:18:37.036Z,3.70
2018-07-16T00:19:10.325Z,3.70
2018-07-16T00:19:43.351Z,3.90
2018-07-16T00:20:16.392Z,3.60
2018-07-16T00:20:49.424Z,3.83
2018-07-16T00:21:23.237Z,3.33
2018-07-16T00:21:56.265Z,3.40
2018-07-16T00:22:29.308Z,3.75
2018-07-16T00:23:02.345Z,3.90
2018-07-16T00:23:35.384Z,3.42
2018-07-16T00:24:08.416Z,3.67
2018-07-16T00:24:41.452Z,4.00
2018-07-16T00:25:15.239Z,3.33
2018-07-16T00:25:48.283Z,3.00
2018-07-16T00:26:21.552Z,3.28
2018-07-16T00:26:54.612Z,3.50
2018-07-16T00:27:28.396Z,3.55
2018-07-16T00:28:01.428Z,3.53
2018-07-16T00:28:34.488Z,3.20
2018-07-16T00:29:07.515Z,3.08
2018-07-16T00:29:40.552Z,3.58
2018-07-16T00:30:13.579Z,3.45
2018-07-16T00:30:46.613Z,3.33
2018-07-16T00:31:19.643Z,3.40
2018-07-16T00:31:52.672Z,3.53
2018-07-16T00:32:26.486Z,3.50
2018-07-16T00:32:59.535Z,3.50
2018-07-16T00:33:32.563Z,3.40
2018-07-16T00:34:05.589Z,3.35
2018-07-16T00:34:39.404Z,3.37
2018-07-16T00:35:12.428Z,3.25
2018-07-16T00:35:45.769Z,3.83
2018-07-16T00:36:18.794Z,3.83
2018-07-16T00:36:51.822Z,4.47
2018-07-16T00:37:25.116Z,3.33
2018-07-16T00:37:58.141Z,3.10
2018-07-16T00:38:31.191Z,3.70
2018-07-16T00:39:04.220Z,3.15
2018-07-16T00:39:37.271Z,3.60
2018-07-16T00:40:10.307Z,3.65
2018-07-16T00:40:43.354Z,3.97
2018-07-16T00:41:16.380Z,3.92
2018-07-16T00:41:50.186Z,3.40
2018-07-16T00:42:23.965Z,3.58
2018-07-16T00:42:57.756Z,3.72
2018-07-16T00:43:30.811Z,3.80
2018-07-16T00:44:03.867Z,3.60
2018-07-16T00:44:36.914Z,3.47
2018-07-16T00:45:09.941Z,3.80
2018-07-16T00:45:42.980Z,3.40
2018-07-16T00:46:16.009Z,3.33
2018-07-16T00:46:49.037Z,3.70
2018-07-16T00:47:22.839Z,4.05
2018-07-16T00:47:55.873Z,3.60
2018-07-16T00:48:28.915Z,3.75
2018-07-16T00:49:01.962Z,4.50
2018-07-16T00:49:35.001Z,4.40
2018-07-16T00:50:08.037Z,3.80
2018-07-16T00:50:41.091Z,3.87
2018-07-16T00:51:14.144Z,3.65
2018-07-16T00:51:47.193Z,3.70
2018-07-16T00:52:21.241Z,3.53
2018-07-16T00:52:54.285Z,3.35
2018-07-16T00:53:27.300Z,3.67
2018-07-16T00:54:00.345Z,3.75
2018-07-16T00:54:33.380Z,3.40
2018-07-16T00:55:07.207Z,3.60
2018-07-16T00:55:40.250Z,3.35
2018-07-16T00:56:13.266Z,3.15
2018-07-16T00:56:46.304Z,3.92
2018-07-16T00:57:20.100Z,3.78
2018-07-16T00:57:53.143Z,3.37
2018-07-16T00:58:26.192Z,3.45
2018-07-16T00:58:59.241Z,3.55
2018-07-16T00:59:32.280Z,3.35
2018-07-16T01:00:06.077Z,3.40
2018-07-16T01:00:39.883Z,3.17
2018-07-16T01:01:13.177Z,3.70
2018-07-16T01:01:46.213Z,3.58
2018-07-16T01:02:19.243Z,3.50
2018-07-16T01:02:52.508Z,3.35
2018-07-16T01:03:25.531Z,3.62
2018-07-16T01:03:58.592Z,3.70
2018-07-16T01:04:31.628Z,3.45
2018-07-16T01:05:04.655Z,3.45
2018-07-16T01:05:37.690Z,3.60
2018-07-16T01:06:10.722Z,3.50
2018-07-16T01:06:44.514Z,3.35
2018-07-16T01:07:18.299Z,3.67
2018-07-16T01:07:52.338Z,3.25
2018-07-16T01:08:25.391Z,4.12
2018-07-16T01:08:59.229Z,3.70
2018-07-16T01:09:32.265Z,4.00
2018-07-16T01:10:05.291Z,3.45
2018-07-16T01:10:38.338Z,3.47
2018-07-16T01:11:11.372Z,3.60
2018-07-16T01:11:45.170Z,3.20
2018-07-16T01:12:18.956Z,3.53
2018-07-16T01:12:52.768Z,3.60
2018-07-16T01:13:25.789Z,3.87
2018-07-16T01:13:58.827Z,3.67
2018-07-16T01:14:31.882Z,4.00
2018-07-16T01:15:05.667Z,3.45
2018-07-16T01:15:39.457Z,3.40
2018-07-16T01:16:13.239Z,3.90
2018-07-16T01:16:47.053Z,3.20
2018-07-16T01:17:20.852Z,3.70
2018-07-16T01:17:53.881Z,3.72
2018-07-16T01:18:26.923Z,3.80
2018-07-16T01:18:59.951Z,3.37
2018-07-16T01:19:33.764Z,3.62
2018-07-16T01:20:06.795Z,3.60
2018-07-16T01:20:39.836Z,3.70
2018-07-16T01:21:12.864Z,3.45
2018-07-16T01:21:46.653Z,3.70
2018-07-16T01:22:19.679Z,3.28
2018-07-16T01:22:52.716Z,3.72
2018-07-16T01:23:26.523Z,3.45
2018-07-16T01:23:59.552Z,3.70
2018-07-16T01:24:32.605Z,3.60
2018-07-16T01:25:05.643Z,3.65
2018-07-16T01:25:38.679Z,3.65
2018-07-16T01:26:11.724Z,3.70
2018-07-16T01:26:44.743Z,3.92
2018-07-16T01:27:17.779Z,3.62
2018-07-16T01:27:50.824Z,3.85
2018-07-16T01:28:23.863Z,3.25
2018-07-16T01:28:57.659Z,3.67
2018-07-16T01:29:30.707Z,3.80
2018-07-16T01:30:03.768Z,3.83
2018-07-16T01:30:36.792Z,3.70
2018-07-16T01:31:09.831Z,3.95
2018-07-16T01:31:43.632Z,3.80
2018-07-16T01:32:17.427Z,3.25
2018-07-16T01:32:50.476Z,3.87
2018-07-16T01:33:23.508Z,4.20
2018-07-16T01:33:57.305Z,3.60
2018-07-16T01:34:30.349Z,3.25
2018-07-16T01:35:03.376Z,4.03
2018-07-16T01:35:36.415Z,3.30
2018-07-16T01:36:10.208Z,3.67
2018-07-16T01:36:43.246Z,3.62
2018-07-16T01:37:16.272Z,3.33
2018-07-16T01:37:49.296Z,3.50
2018-07-16T01:38:22.328Z,3.40
2018-07-16T01:38:55.375Z,3.92
2018-07-16T01:39:29.195Z,4.43
2018-07-16T01:40:02.223Z,3.53
2018-07-16T01:40:35.250Z,3.28
2018-07-16T01:41:08.277Z,3.35
2018-07-16T01:41:41.323Z,3.90
2018-07-16T01:42:14.353Z,3.78
2018-07-16T01:42:48.148Z,3.78
2018-07-16T01:43:21.191Z,3.60
2018-07-16T01:43:54.244Z,3.97
2018-07-16T01:44:27.276Z,3.40
2018-07-16T01:45:00.316Z,2.97
2018-07-16T01:45:33.365Z,3.60
2018-07-16T01:46:06.394Z,3.70
2018-07-16T01:46:40.199Z,3.50
2018-07-16T01:47:13.233Z,3.40
2018-07-16T01:47:46.259Z,3.40
2018-07-16T01:48:19.291Z,3.42
2018-07-16T01:48:52.321Z,3.30
2018-07-16T01:49:25.365Z,4.40
2018-07-16T01:49:58.409Z,3.42
2018-07-16T01:50:31.430Z,3.30
2018-07-16T01:51:04.452Z,3.72
2018-07-16T01:51:37.483Z,3.50
2018-07-16T01:52:10.518Z,3.58
2018-07-16T01:52:44.336Z,3.20
2018-07-16T01:53:17.373Z,3.47
2018-07-16T01:53:50.399Z,3.45
2018-07-16T01:54:23.436Z,3.28
2018-07-16T01:54:57.235Z,3.37
2018-07-16T01:55:30.263Z,3.80
2018-07-16T01:56:03.521Z,3.40
2018-07-16T01:56:36.564Z,3.90
2018-07-16T01:57:09.579Z,3.67
2018-07-16T01:57:42.619Z,3.95
2018-07-16T01:58:16.418Z,3.55
2018-07-16T01:58:49.465Z,3.50
2018-07-16T01:59:22.610Z,3.45
2018-07-16T01:59:55.664Z,3.92
2018-07-16T02:00:28.704Z,3.67
2018-07-16T02:01:02.525Z,4.03
2018-07-16T02:01:35.554Z,3.70
2018-07-16T02:02:08.591Z,3.62
2018-07-16T02:02:41.615Z,3.65
2018-07-16T02:03:15.404Z,4.05
2018-07-16T02:03:49.195Z,3.50
2018-07-16T02:04:22.225Z,3.70
2018-07-16T02:04:55.272Z,3.67
2018-07-16T02:05:28.304Z,3.60
2018-07-16T02:06:01.337Z,3.70
2018-07-16T02:06:34.364Z,3.37
2018-07-16T02:07:07.408Z,3.20
2018-07-16T02:07:40.435Z,3.30
2018-07-16T02:08:14.223Z,3.78
2018-07-16T02:08:48.015Z,3.40
2018-07-16T02:09:21.803Z,3.55
2018-07-16T02:09:55.641Z,3.97
2018-07-16T02:10:28.667Z,3.70
2018-07-16T02:11:01.754Z,3.58
2018-07-16T02:11:35.544Z,3.90
2018-07-16T02:12:09.357Z,3.67
2018-07-16T02:12:42.854Z,3.20
2018-07-16T02:13:15.877Z,3.60
2018-07-16T02:13:48.911Z,3.30
2018-07-16T02:14:21.944Z,3.72
2018-07-16T02:14:54.996Z,3.85
2018-07-16T02:15:28.033Z,3.53
2018-07-16T02:16:01.055Z,3.72
2018-07-16T02:16:34.855Z,3.50
2018-07-16T02:17:07.904Z,3.40
2018-07-16T02:17:40.940Z,3.35
2018-07-16T02:18:13.971Z,3.47
2018-07-16T02:18:46.998Z,3.83
2018-07-16T02:19:20.788Z,3.53
2018-07-16T02:19:53.829Z,3.50
2018-07-16T02:20:27.671Z,3.50
2018-07-16T02:21:00.697Z,3.10
2018-07-16T02:21:34.492Z,3.17
2018-07-16T02:22:08.291Z,3.70
2018-07-16T02:22:41.316Z,3.65
2018-07-16T02:23:14.365Z,3.40
2018-07-16T02:23:47.533Z,3.10
2018-07-16T02:24:20.556Z,3.40
2018-07-16T02:24:53.608Z,3.78
2018-07-16T02:25:26.643Z,3.92
2018-07-16T02:26:00.434Z,3.50
2018-07-16T02:26:33.460Z,3.47
2018-07-16T02:27:06.609Z,3.25
2018-07-16T02:27:39.642Z,3.45
2018-07-16T02:28:13.440Z,3.03
2018-07-16T02:28:47.236Z,3.42
2018-07-16T02:29:20.349Z,3.50
2018-07-16T02:29:53.400Z,3.30
2018-07-16T02:30:26.443Z,3.50
2018-07-16T02:30:59.460Z,3.60
2018-07-16T02:31:32.655Z,3.22
2018-07-16T02:32:05.685Z,3.33
2018-07-16T02:32:38.723Z,3.47
2018-07-16T02:33:11.744Z,3.33
2018-07-16T02:33:44.764Z,3.65
2018-07-16T02:34:18.116Z,3.75
2018-07-16T02:34:51.147Z,3.15
2018-07-16T02:35:24.193Z,4.20
2018-07-16T02:35:57.559Z,3.60
2018-07-16T02:36:31.344Z,3.58
2018-07-16T02:37:04.386Z,3.30
2018-07-16T02:37:38.202Z,3.75
2018-07-16T02:38:11.229Z,3.58
2018-07-16T02:38:44.262Z,3.42
2018-07-16T02:39:17.295Z,3.37
2018-07-16T02:39:51.092Z,4.37
2018-07-16T02:40:24.904Z,3.47
2018-07-16T02:40:57.958Z,3.10
2018-07-16T02:41:30.999Z,3.55
2018-07-16T02:42:04.052Z,3.87
2018-07-16T02:42:37.076Z,3.37
2018-07-16T02:43:10.929Z,4.03
2018-07-16T02:43:43.904Z,3.92
2018-07-16T02:44:16.935Z,3.58
2018-07-16T02:44:50.748Z,3.72
2018-07-16T02:45:23.787Z,3.40
2018-07-16T02:45:56.813Z,3.55
2018-07-16T02:46:29.853Z,3.50
2018-07-16T02:47:02.881Z,3.83
2018-07-16T02:47:35.912Z,3.80
2018-07-16T02:48:08.965Z,3.87
2018-07-16T02:48:41.988Z,3.37
2018-07-16T02:49:15.250Z,3.70
2018-07-16T02:49:48.284Z,3.80
2018-07-16T02:50:21.333Z,3.90
2018-07-16T02:50:54.356Z,3.62
2018-07-16T02:51:27.396Z,3.72
2018-07-16T02:52:00.420Z,4.05
2018-07-16T02:52:33.445Z,3.78
2018-07-16T02:53:06.482Z,4.20
2018-07-16T02:53:39.509Z,3.55
2018-07-16T02:54:12.532Z,3.72
2018-07-16T02:54:45.573Z,3.70
2018-07-16T02:55:19.709Z,3.70
2018-07-16T02:55:52.730Z,3.67
2018-07-16T02:56:25.838Z,3.60
2018-07-16T02:56:58.788Z,3.47
2018-07-16T02:57:32.646Z,3.67
2018-07-16T02:58:05.672Z,3.70
2018-07-16T02:58:38.708Z,3.70
2018-07-16T02:59:11.746Z,3.67
2018-07-16T02:59:44.767Z,3.78
2018-07-16T03:00:17.825Z,4.10
2018-07-16T03:00:50.869Z,3.70
2018-07-16T03:01:23.916Z,3.70
2018-07-16T03:01:56.948Z,3.60
2018-07-16T03:02:29.976Z,4.10
2018-07-16T03:03:03.007Z,3.65
2018-07-16T03:03:36.044Z,3.55
2018-07-16T03:04:09.079Z,3.80
2018-07-16T03:04:42.875Z,3.90
2018-07-16T03:05:16.693Z,3.62
2018-07-16T03:05:49.732Z,4.30
2018-07-16T03:06:23.519Z,3.95
2018-07-16T03:06:56.544Z,3.60
2018-07-16T03:07:30.344Z,4.22
2018-07-16T03:08:03.395Z,3.90
2018-07-16T03:08:36.415Z,3.62
2018-07-16T03:09:09.436Z,3.70
2018-07-16T03:09:42.462Z,4.07
2018-07-16T03:10:15.515Z,4.20
2018-07-16T03:10:48.570Z,4.55
2018-07-16T03:11:21.607Z,4.35
2018-07-16T03:11:54.632Z,3.95
2018-07-16T03:12:27.660Z,3.70
2018-07-16T03:13:00.690Z,4.28
2018-07-16T03:13:33.720Z,3.95
2018-07-16T03:14:07.511Z,4.10
2018-07-16T03:14:40.580Z,3.78
2018-07-16T03:15:13.625Z,3.80
2018-07-16T03:15:46.656Z,3.78
2018-07-16T03:16:19.816Z,3.53
2018-07-16T03:16:53.617Z,3.80
2018-07-16T03:17:27.412Z,3.92
2018-07-16T03:18:00.492Z,3.50
2018-07-16T03:18:33.476Z,4.03
2018-07-16T03:19:06.513Z,3.83
2018-07-16T03:19:40.320Z,3.65
2018-07-16T03:20:14.115Z,3.75
2018-07-16T03:20:47.151Z,3.87
2018-07-16T03:21:20.948Z,3.75
2018-07-16T03:21:53.996Z,3.70
2018-07-16T03:22:27.787Z,3.80
2018-07-16T03:23:00.817Z,3.15
2018-07-16T03:23:34.612Z,3.60
2018-07-16T03:24:07.652Z,3.40
2018-07-16T03:24:40.705Z,3.62
2018-07-16T03:25:13.741Z,3.62
2018-07-16T03:25:46.784Z,3.78
2018-07-16T03:26:19.912Z,3.72
2018-07-16T03:26:52.952Z,3.47
2018-07-16T03:27:25.995Z,3.47
2018-07-16T03:27:59.016Z,3.78
2018-07-16T03:28:32.051Z,3.70
2018-07-16T03:29:05.089Z,3.65
2018-07-16T03:29:38.112Z,3.45
2018-07-16T03:30:11.924Z,3.80
2018-07-16T03:30:45.749Z,3.47
2018-07-16T03:31:19.543Z,3.72
2018-07-16T03:31:53.334Z,3.37
2018-07-16T03:32:26.525Z,3.97
2018-07-16T03:32:59.683Z,3.70
2018-07-16T03:33:32.704Z,3.30
2018-07-16T03:34:05.728Z,3.55
2018-07-16T03:34:38.760Z,3.70
2018-07-16T03:35:12.564Z,3.42
2018-07-16T03:35:46.359Z,3.70
2018-07-16T03:36:20.153Z,3.70
2018-07-16T03:36:53.944Z,3.20
2018-07-16T03:37:27.751Z,3.60
2018-07-16T03:38:00.782Z,3.87
2018-07-16T03:38:33.824Z,3.65
2018-07-16T03:39:06.857Z,3.47
2018-07-16T03:39:40.645Z,3.60
2018-07-16T03:40:14.457Z,3.53
2018-07-16T03:40:47.491Z,3.70
2018-07-16T03:41:20.524Z,4.00
2018-07-16T03:41:53.551Z,3.40
2018-07-16T03:42:26.571Z,3.83
2018-07-16T03:42:59.593Z,3.30
2018-07-16T03:43:32.627Z,3.55
2018-07-16T03:44:05.652Z,3.65
2018-07-16T03:44:38.677Z,3.03
2018-07-16T03:45:11.708Z,3.60
2018-07-16T03:45:45.527Z,3.55
2018-07-16T03:46:18.564Z,3.72
2018-07-16T03:46:51.589Z,3.40
2018-07-16T03:47:24.616Z,3.62
2018-07-16T03:47:57.696Z,3.90
2018-07-16T03:48:30.708Z,2.97
2018-07-16T03:49:03.748Z,3.58
2018-07-16T03:49:36.772Z,3.42
2018-07-16T03:50:09.812Z,3.60
2018-07-16T03:50:43.616Z,3.92
2018-07-16T03:51:16.654Z,4.25
2018-07-16T03:51:49.671Z,3.60
2018-07-16T03:52:22.711Z,4.03
2018-07-16T03:52:56.516Z,3.15
2018-07-16T03:53:30.381Z,3.70
2018-07-16T03:54:03.427Z,3.35
2018-07-16T03:54:36.440Z,3.72
2018-07-16T03:55:10.241Z,3.08
2018-07-16T03:55:44.087Z,3.35
2018-07-16T03:56:17.245Z,3.80
2018-07-16T03:56:50.272Z,3.72
2018-07-16T03:57:23.306Z,3.80
2018-07-16T03:57:56.340Z,3.80
2018-07-16T03:58:30.138Z,3.70
2018-07-16T03:59:03.938Z,3.65
2018-07-16T03:59:36.963Z,3.80
2018-07-16T04:00:10.105Z,3.55
2018-07-16T04:00:43.167Z,3.60
2018-07-16T04:01:16.196Z,3.60
2018-07-16T04:01:49.226Z,3.78
2018-07-16T04:02:22.257Z,3.95
2018-07-16T04:02:55.285Z,3.78
2018-07-16T04:03:28.311Z,3.90
2018-07-16T04:04:02.105Z,3.90
2018-07-16T04:04:35.129Z,3.47
2018-07-16T04:05:08.167Z,3.97
2018-07-16T04:05:41.986Z,3.58
2018-07-16T04:06:15.017Z,3.35
2018-07-16T04:06:48.081Z,3.47
2018-07-16T04:07:21.134Z,3.33
2018-07-16T04:07:54.144Z,4.05
2018-07-16T04:08:27.960Z,3.50
2018-07-16T04:09:00.982Z,3.90
2018-07-16T04:09:34.013Z,3.62
2018-07-16T04:10:07.045Z,3.35
2018-07-16T04:10:40.085Z,3.78
2018-07-16T04:11:13.132Z,3.42
2018-07-16T04:11:46.174Z,3.85
2018-07-16T04:12:19.204Z,3.67
2018-07-16T04:12:52.236Z,3.85
2018-07-16T04:13:26.033Z,3.67
2018-07-16T04:13:59.072Z,3.40
2018-07-16T04:14:32.112Z,3.78
2018-07-16T04:15:05.166Z,3.55
2018-07-16T04:15:38.201Z,3.45
2018-07-16T04:16:11.215Z,3.37
2018-07-16T04:16:44.251Z,4.45
2018-07-16T04:17:17.280Z,4.20
2018-07-16T04:17:50.329Z,3.25
2018-07-16T04:18:23.359Z,3.55
2018-07-16T04:18:56.392Z,3.67
2018-07-16T04:19:29.420Z,3.30
2018-07-16T04:20:03.223Z,3.25
2018-07-16T04:20:36.252Z,3.40
2018-07-16T04:21:09.310Z,3.58
2018-07-16T04:21:43.092Z,3.75
2018-07-16T04:22:16.139Z,3.70
2018-07-16T04:22:49.179Z,3.45
2018-07-16T04:23:22.216Z,3.75
2018-07-16T04:23:55.336Z,3.28
2018-07-16T04:24:28.368Z,3.33
2018-07-16T04:25:02.173Z,3.75
2018-07-16T04:25:35.198Z,3.50
2018-07-16T04:26:08.259Z,3.53
2018-07-16T04:26:41.424Z,3.70
2018-07-16T04:27:14.451Z,3.70
2018-07-16T04:27:47.487Z,3.58
2018-07-16T04:28:20.516Z,3.72
2018-07-16T04:28:54.312Z,3.22
2018-07-16T04:29:28.100Z,3.60
2018-07-16T04:30:01.904Z,3.72
2018-07-16T04:30:34.932Z,3.80
2018-07-16T04:31:07.980Z,4.15
2018-07-16T04:31:41.033Z,3.40
2018-07-16T04:32:14.064Z,3.30
2018-07-16T04:32:47.088Z,3.60
2018-07-16T04:33:20.119Z,3.80
2018-07-16T04:33:53.917Z,3.40
2018-07-16T04:34:27.708Z,3.50
2018-07-16T04:35:01.496Z,3.08
2018-07-16T04:35:35.297Z,3.80
2018-07-16T04:36:09.124Z,3.78
2018-07-16T04:36:42.160Z,4.00
2018-07-16T04:37:15.948Z,3.40
2018-07-16T04:37:48.987Z,3.92
2018-07-16T04:38:22.012Z,3.90
2018-07-16T04:38:55.814Z,3.95
2018-07-16T04:39:28.856Z,3.67
2018-07-16T04:40:01.956Z,3.47
2018-07-16T04:40:34.924Z,3.95
2018-07-16T04:41:08.719Z,3.78
2018-07-16T04:41:42.535Z,3.90
2018-07-16T04:42:15.581Z,3.60
2018-07-16T04:42:48.605Z,3.80
2018-07-16T04:43:21.650Z,3.50
2018-07-16T04:43:54.702Z,3.28
2018-07-16T04:44:27.698Z,3.35
2018-07-16T04:45:00.723Z,3.55
2018-07-16T04:45:33.773Z,3.37
2018-07-16T04:46:06.815Z,3.87
2018-07-16T04:46:39.857Z,3.80
2018-07-16T04:47:12.887Z,3.22
2018-07-16T04:47:45.937Z,3.47
2018-07-16T04:48:18.986Z,3.65
2018-07-16T04:48:52.024Z,3.75
2018-07-16T04:49:25.061Z,3.65
2018-07-16T04:49:58.091Z,3.85
2018-07-16T04:50:31.896Z,3.70
2018-07-16T04:51:04.924Z,3.85
2018-07-16T04:51:37.990Z,3.55
2018-07-16T04:52:11.013Z,3.40
2018-07-16T04:52:44.352Z,3.53
2018-07-16T04:53:17.380Z,3.70
2018-07-16T04:53:50.415Z,3.62
2018-07-16T04:54:23.448Z,4.62
2018-07-16T04:54:57.247Z,3.83
2018-07-16T04:55:30.267Z,3.87
2018-07-16T04:56:04.080Z,3.67
2018-07-16T04:56:37.134Z,3.60
2018-07-16T04:57:10.149Z,3.75
2018-07-16T04:57:43.171Z,3.60
2018-07-16T04:58:16.209Z,3.58
2018-07-16T04:58:50.001Z,3.67
2018-07-16T04:59:23.820Z,3.80
2018-07-16T04:59:56.841Z,3.72
2018-07-16T05:00:29.861Z,3.03
2018-07-16T05:06:27.996Z,3.80
2018-07-16T05:07:01.029Z,3.70
2018-07-16T05:07:34.060Z,4.23
2018-07-16T05:08:07.116Z,4.20
2018-07-16T05:08:40.137Z,3.90
2018-07-16T05:09:45.683Z,3.90
2018-07-16T05:10:18.727Z,4.10
2018-07-16T05:12:29.372Z,4.10
2018-07-16T05:13:02.432Z,3.85
2018-07-16T05:15:10.620Z,3.97
2018-07-16T05:15:43.656Z,3.85
2018-07-16T05:16:49.192Z,4.10
2018-07-16T05:17:55.514Z,3.50
2018-07-16T05:18:29.483Z,3.80
2018-07-16T05:19:02.340Z,3.90
2018-07-16T05:19:35.368Z,3.65
2018-07-16T05:20:08.417Z,3.45
2018-07-16T05:20:41.444Z,3.97
2018-07-16T05:21:15.235Z,4.30
2018-07-16T05:21:49.056Z,3.70
2018-07-16T05:22:22.091Z,4.00
2018-07-16T05:22:55.888Z,4.25
2018-07-16T05:23:29.679Z,4.50
2018-07-16T05:24:02.764Z,4.00
2018-07-16T05:24:35.768Z,3.90
2018-07-16T05:25:09.048Z,3.72
2018-07-16T05:25:42.087Z,3.50
2018-07-16T05:26:15.225Z,4.05
2018-07-16T05:26:48.264Z,3.60
2018-07-16T05:27:21.361Z,4.18
2018-07-16T05:27:55.154Z,4.72
2018-07-16T05:28:28.422Z,3.55
2018-07-16T05:29:01.459Z,4.00
2018-07-16T05:29:35.259Z,3.80
2018-07-16T05:30:09.051Z,3.90
2018-07-16T05:30:42.853Z,4.15
2018-07-16T05:31:16.640Z,3.92
2018-07-16T05:31:50.579Z,3.97
2018-07-16T05:32:23.637Z,4.10
2018-07-16T05:32:56.539Z,4.05
2018-07-16T05:33:29.574Z,3.90
2018-07-16T05:34:03.385Z,3.60
2018-07-16T05:34:36.412Z,3.58
2018-07-16T05:35:09.444Z,3.72
2018-07-16T05:35:42.477Z,3.50
2018-07-16T05:36:16.271Z,3.30
2018-07-16T05:36:49.306Z,3.75
2018-07-16T05:37:22.335Z,3.83
2018-07-16T05:37:55.587Z,3.85
2018-07-16T05:38:29.610Z,3.58
2018-07-16T05:39:02.679Z,3.92
2018-07-16T05:39:35.779Z,4.20
2018-07-16T05:40:08.825Z,4.40
2018-07-16T05:40:41.861Z,3.80
2018-07-16T05:41:14.916Z,3.95
2018-07-16T05:41:47.980Z,3.80
2018-07-16T05:42:21.031Z,4.70
2018-07-16T05:42:54.071Z,4.12
2018-07-16T05:43:27.107Z,4.50
2018-07-16T05:44:00.129Z,4.53
2018-07-16T05:44:33.931Z,3.95
2018-07-16T05:45:07.810Z,4.53
2018-07-16T05:45:40.856Z,4.50
2018-07-16T05:46:13.890Z,4.75
2018-07-16T05:46:46.940Z,4.25
2018-07-16T05:47:19.962Z,4.97
2018-07-16T05:47:52.987Z,4.70
2018-07-16T05:48:26.034Z,4.50
2018-07-16T05:48:59.051Z,4.15
2018-07-16T05:49:32.153Z,4.07
2018-07-16T05:50:05.954Z,4.68
2018-07-16T05:50:38.979Z,4.10
2018-07-16T05:51:12.008Z,4.78
2018-07-16T05:51:45.076Z,4.43
2018-07-16T05:52:18.119Z,5.80
2018-07-16T05:52:51.147Z,4.62
2018-07-16T05:53:24.171Z,4.70
2018-07-16T05:53:57.196Z,4.90
2018-07-16T05:54:30.254Z,4.82
2018-07-16T05:55:03.299Z,5.10
2018-07-16T05:55:37.100Z,5.25
2018-07-16T05:56:10.289Z,4.87
2018-07-16T05:56:44.092Z,5.28
2018-07-16T05:57:17.151Z,4.82
2018-07-16T05:57:50.196Z,4.72
2018-07-16T05:58:24.051Z,4.97
2018-07-16T05:58:57.775Z,4.97
2018-07-16T05:59:31.568Z,4.57
2018-07-16T06:00:05.418Z,5.10
2018-07-16T06:00:38.466Z,5.10
2018-07-16T06:01:11.536Z,5.70
2018-07-16T06:01:44.599Z,5.53
2018-07-16T06:02:17.660Z,4.97
2018-07-16T06:02:51.460Z,5.28
2018-07-16T06:03:25.275Z,5.15
2018-07-16T06:03:59.062Z,5.35
2018-07-16T06:04:32.093Z,5.72
2018-07-16T06:05:05.124Z,5.43
2018-07-16T06:05:38.396Z,5.25
2018-07-16T06:06:11.412Z,4.35
2018-07-16T06:06:44.567Z,5.00
2018-07-16T06:07:17.599Z,5.10
2018-07-16T06:07:51.399Z,6.37
2018-07-16T06:08:24.435Z,4.80
2018-07-16T06:08:57.487Z,4.97
2018-07-16T06:09:30.519Z,5.03
2018-07-16T06:10:04.319Z,5.22
2018-07-16T06:10:37.365Z,4.60
2018-07-16T06:11:10.391Z,5.60
2018-07-16T06:11:43.424Z,5.15
2018-07-16T06:12:16.573Z,4.40
2018-07-16T06:12:49.609Z,4.40
2018-07-16T06:13:22.631Z,5.85
2018-07-16T06:13:55.680Z,5.07
2018-07-16T06:14:28.762Z,4.90
2018-07-16T06:15:02.466Z,4.20
2018-07-16T06:18:19.587Z,4.37
2018-07-16T06:18:52.634Z,4.00
2018-07-16T06:19:25.661Z,4.25
2018-07-16T06:19:58.697Z,4.62
2018-07-16T06:20:31.731Z,4.50
2018-07-16T06:21:37.268Z,4.68
2018-07-16T06:22:11.089Z,4.65
2018-07-16T06:22:44.133Z,4.93
2018-07-16T06:23:17.172Z,4.32
2018-07-16T06:23:50.219Z,4.40
2018-07-16T06:24:23.243Z,4.35
2018-07-16T06:24:57.036Z,4.10
2018-07-16T06:25:30.143Z,4.32
2018-07-16T06:26:03.134Z,4.20
2018-07-16T06:26:36.180Z,4.78
2018-07-16T06:27:09.240Z,4.05
2018-07-16T06:27:43.041Z,4.53
2018-07-16T06:28:16.833Z,4.53
2018-07-16T06:28:50.956Z,4.80
2018-07-16T06:29:23.987Z,4.65
2018-07-16T06:29:57.028Z,4.53
2018-07-16T06:30:30.191Z,4.37
2018-07-16T06:31:03.229Z,4.20
2018-07-16T06:31:37.024Z,4.25
2018-07-16T06:32:10.164Z,4.15
2018-07-16T06:32:43.187Z,4.10
2018-07-16T06:33:16.216Z,4.40
2018-07-16T06:33:49.259Z,4.53
2018-07-16T06:34:22.281Z,4.45
2018-07-16T06:34:55.356Z,4.05
2018-07-16T06:35:28.419Z,4.68
2018-07-16T06:36:01.451Z,4.30
2018-07-16T06:36:34.483Z,4.65
2018-07-16T06:37:08.288Z,5.00
2018-07-16T06:37:42.105Z,4.80
2018-07-16T06:38:15.120Z,4.57
2018-07-16T06:38:48.913Z,4.32
2018-07-16T06:39:21.935Z,5.10
2018-07-16T06:39:55.060Z,5.18
2018-07-16T06:40:28.146Z,4.55
2018-07-16T06:41:01.411Z,5.53
2018-07-16T06:41:34.420Z,4.93
2018-07-16T06:42:07.872Z,4.62
2018-07-16T06:44:51.832Z,5.15
2018-07-16T06:45:24.856Z,5.15
2018-07-16T06:45:57.891Z,5.57
2018-07-16T06:46:31.699Z,5.18
2018-07-16T06:47:04.740Z,6.22
2018-07-16T06:47:38.182Z,5.18
2018-07-16T06:48:11.220Z,5.32
2018-07-16T06:48:45.025Z,5.62
2018-07-16T06:49:18.820Z,5.50
2018-07-16T06:49:51.876Z,5.28
2018-07-16T06:50:25.692Z,5.35
2018-07-16T06:50:58.726Z,5.12
2018-07-16T06:51:31.768Z,5.20
2018-07-16T06:52:04.816Z,4.53
2018-07-16T06:52:37.873Z,4.45
2018-07-16T06:53:11.665Z,4.95
2018-07-16T06:53:45.473Z,5.30
2018-07-16T06:54:19.263Z,5.03
2018-07-16T06:54:52.304Z,5.28
2018-07-16T06:55:25.340Z,5.47
2018-07-16T06:55:58.377Z,5.78
2018-07-16T06:56:32.165Z,5.62
2018-07-16T06:57:05.964Z,4.82
2018-07-16T06:57:39.788Z,4.62
2018-07-16T06:58:13.594Z,5.20
2018-07-16T06:58:46.665Z,3.95
2018-07-16T06:59:19.838Z,4.57
2018-07-16T06:59:52.873Z,5.10
2018-07-16T07:00:26.686Z,5.35
2018-07-16T07:00:59.728Z,4.93
2018-07-16T07:01:32.756Z,4.65
2018-07-16T07:02:05.800Z,4.25
2018-07-16T07:02:39.611Z,5.00
2018-07-16T07:03:12.653Z,5.07
2018-07-16T07:03:45.721Z,5.00
2018-07-16T07:04:18.719Z,4.50
2018-07-16T07:04:51.755Z,5.53
2018-07-16T07:05:24.785Z,4.60
2018-07-16T07:05:57.824Z,4.57
2018-07-16T07:06:31.624Z,4.62
2018-07-16T07:07:05.428Z,4.10
2018-07-16T07:07:39.272Z,4.93
2018-07-16T07:08:12.324Z,4.90
2018-07-16T07:08:45.381Z,5.05
2018-07-16T07:09:19.169Z,4.28
2018-07-16T07:09:52.213Z,5.05
2018-07-16T07:10:25.236Z,5.07
2018-07-16T07:10:58.260Z,4.80
2018-07-16T07:11:31.295Z,4.65
2018-07-16T07:12:04.345Z,4.40
2018-07-16T07:12:37.472Z,4.72
2018-07-16T07:13:10.533Z,4.30
2018-07-16T07:13:43.582Z,4.03
2018-07-16T07:14:16.619Z,4.78
2018-07-16T07:14:49.654Z,4.60
2018-07-16T07:15:22.681Z,4.03
2018-07-16T07:15:56.517Z,4.62
2018-07-16T07:16:29.551Z,4.40
2018-07-16T07:17:02.576Z,4.90
2018-07-16T07:17:35.637Z,4.37
2018-07-16T07:18:08.703Z,4.82
2018-07-16T07:18:41.705Z,4.62
2018-07-16T07:19:14.760Z,4.37
2018-07-16T07:19:47.785Z,5.00
2018-07-16T07:20:21.572Z,4.65
2018-07-16T07:20:54.612Z,4.47
2018-07-16T07:21:27.645Z,5.10
2018-07-16T07:22:01.440Z,4.35
2018-07-16T07:22:34.744Z,4.22
2018-07-16T07:23:07.792Z,4.10
2018-07-16T07:23:40.836Z,4.32
2018-07-16T07:24:13.855Z,4.10
2018-07-16T07:24:46.888Z,4.18
2018-07-16T07:25:19.917Z,5.07
2018-07-16T07:26:25.507Z,4.35
2018-07-16T07:27:31.819Z,4.80
2018-07-16T07:28:04.852Z,4.65
2018-07-16T07:28:37.890Z,4.30
2018-07-16T07:29:10.921Z,3.95
2018-07-16T07:29:43.948Z,4.00
2018-07-16T07:30:16.992Z,3.53
2018-07-16T07:30:50.012Z,3.60
2018-07-16T07:31:23.805Z,3.80
2018-07-16T07:31:57.596Z,4.32
2018-07-16T07:32:31.402Z,3.58
2018-07-16T07:33:04.449Z,3.95
2018-07-16T07:33:37.485Z,3.95
2018-07-16T07:34:10.537Z,4.30
2018-07-16T07:34:44.335Z,3.85
2018-07-16T07:35:17.576Z,4.10
2018-07-16T07:35:50.434Z,3.78
2018-07-16T07:36:23.452Z,4.00
2018-07-16T07:36:56.657Z,3.70
2018-07-16T07:37:29.692Z,3.40
2018-07-16T07:38:03.520Z,3.62
2018-07-16T07:38:36.556Z,3.58
2018-07-16T07:39:10.335Z,3.42